首页
METAR-TAF:

METAR-TAF

机场 :

Mount Carmel Municipal Airport

Mount Carmel, 伊利诺伊州, 美国

纬度: 38-36-23N, 经度: 087-43-36W, 海拔: 131米

当前天气观测

该预报发布于23分钟前的21:55 UTC
风速4节,风向西
温度 5°C
湿度 56%
气压 1032 hPa
能見度: 16.1公里
天空无云

METAR: KAJG 112155Z AUTO 26004KT 10SM CLR 05/M03 A3048 RMK AO2 T00451034

时间: 16:18 (22:18 UTC)


TAF: 丢失

超过4000个机场的气象观测和天气预报(METAR&TAF报告)。

可查询的气象台以黄色和红色小点在地图上表示。

将鼠标移到小点上方,可查看气象台名称。

然后点击查看天气观测和预报。

如需切换地图:点击带黑十字的绿色按钮放大地图;点击带横线的绿色按钮缩小地图;或者点击绿色箭头查看邻近地区的地图。


METAR-TAF: